Time;durP1;ratioP1;P1;durP2;ratioP2;P2;SDS_P1;SDS_P2;PMS_P1;PMS_P2;Temp;Humidity;BMP_temperature;BMP_pressure;BME280_temperature;BME280_humidity;BME280_pressure;Samples;Min_cycle;Max_cycle;Signal;HPM_P1;HPM_P2
2022/11/09 00:01:23;;;;;;;1.63;0.90;;;13.00;99.90;;;;;;5030145;28;20036;-72
2022/11/09 00:03:57;;;;;;;1.25;0.75;;;13.00;99.90;;;;;;5032559;28;20032;-71
2022/11/09 00:06:23;;;;;;;1.52;0.82;;;13.00;99.90;;;;;;5061800;28;20044;-72
2022/11/09 00:08:49;;;;;;;1.13;0.63;;;13.00;99.90;;;;;;5034116;28;21103;-72
2022/11/09 00:11:15;;;;;;;1.60;0.70;;;13.00;99.90;;;;;;5065802;28;20087;-72
2022/11/09 00:13:42;;;;;;;2.40;1.08;;;13.00;99.90;;;;;;5049285;28;20078;-71
2022/11/09 00:16:13;;;;;;;1.30;0.70;;;13.10;99.90;;;;;;5050572;28;20032;-72
2022/11/09 00:18:44;;;;;;;1.33;0.52;;;13.10;99.90;;;;;;5050106;28;20155;-72
2022/11/09 00:21:21;;;;;;;2.15;0.47;;;13.00;99.90;;;;;;5048722;28;20037;-71
2022/11/09 00:23:47;;;;;;;1.15;0.60;;;13.00;99.90;;;;;;5044316;28;20067;-72
2022/11/09 00:26:15;;;;;;;2.20;0.82;;;13.00;99.90;;;;;;5047128;28;20055;-71
2022/11/09 00:28:41;;;;;;;1.60;0.73;;;13.00;99.90;;;;;;5050690;28;20498;-72
2022/11/09 00:31:10;;;;;;;2.83;0.65;;;13.00;99.90;;;;;;5047929;28;20040;-72
2022/11/09 00:33:36;;;;;;;0.60;0.40;;;13.00;99.90;;;;;;5047456;28;20063;-72
2022/11/09 00:36:06;;;;;;;1.05;0.65;;;12.90;99.90;;;;;;5031383;28;20120;-72
2022/11/09 00:38:36;;;;;;;0.93;0.43;;;13.00;99.90;;;;;;5031043;28;20071;-72
2022/11/09 00:41:03;;;;;;;0.88;0.38;;;12.90;99.90;;;;;;5053200;28;20136;-71
2022/11/09 00:43:28;;;;;;;1.52;0.73;;;13.00;99.90;;;;;;5038331;28;20793;-72
2022/11/09 00:45:54;;;;;;;5.05;0.70;;;12.90;99.90;;;;;;5065639;28;20037;-72
2022/11/09 00:48:20;;;;;;;1.02;0.60;;;12.90;99.90;;;;;;5048523;28;20064;-71
2022/11/09 00:50:53;;;;;;;3.53;0.85;;;12.90;99.90;;;;;;5047589;28;20456;-72
2022/11/09 00:53:20;;;;;;;1.75;0.80;;;12.90;99.90;;;;;;5047613;28;20494;-71
2022/11/09 00:55:56;;;;;;;1.35;0.77;;;12.90;99.90;;;;;;5052438;28;20119;-72
2022/11/09 00:58:23;;;;;;;2.55;0.90;;;13.00;99.90;;;;;;5058781;28;20513;-72
2022/11/09 01:00:49;;;;;;;0.98;0.50;;;13.00;99.90;;;;;;5048692;28;20041;-71
2022/11/09 01:03:15;;;;;;;1.08;0.65;;;13.00;99.90;;;;;;5046844;28;20040;-72
2022/11/09 01:05:40;;;;;;;1.85;0.70;;;13.00;99.90;;;;;;5056701;28;20098;-72
2022/11/09 01:08:07;;;;;;;1.33;0.75;;;13.00;99.90;;;;;;5048476;28;20048;-71
2022/11/09 01:10:33;;;;;;;1.20;0.50;;;13.00;99.90;;;;;;5040655;28;20140;-71
2022/11/09 01:12:58;;;;;;;2.88;0.80;;;13.00;99.90;;;;;;5034227;28;20055;-71
2022/11/09 01:15:24;;;;;;;2.08;0.77;;;13.00;99.90;;;;;;5033225;28;20048;-72
2022/11/09 01:17:50;;;;;;;1.88;0.65;;;13.00;99.90;;;;;;5057532;28;20049;-71
2022/11/09 01:20:16;;;;;;;1.05;0.50;;;12.90;99.90;;;;;;5047018;28;20029;-72
2022/11/09 01:22:42;;;;;;;1.00;0.52;;;13.00;99.90;;;;;;5050234;28;20041;-71
2022/11/09 01:25:08;;;;;;;1.25;0.65;;;12.90;99.90;;;;;;5057597;28;20043;-72
2022/11/09 01:27:34;;;;;;;2.00;0.90;;;12.90;99.90;;;;;;5050466;28;20037;-72
2022/11/09 01:30:00;;;;;;;2.35;1.00;;;12.90;99.90;;;;;;5048576;28;20505;-72
2022/11/09 01:32:25;;;;;;;1.00;0.60;;;12.90;99.90;;;;;;5029727;28;20047;-72
2022/11/09 01:34:51;;;;;;;1.10;0.63;;;12.80;99.90;;;;;;5047637;28;20040;-72
2022/11/09 01:37:17;;;;;;;1.25;0.57;;;12.80;99.90;;;;;;5054292;28;20659;-72
2022/11/09 01:39:42;;;;;;;1.23;0.70;;;12.80;99.90;;;;;;5053198;28;20063;-72
2022/11/09 01:42:08;;;;;;;1.02;0.63;;;12.80;99.90;;;;;;5052166;28;20033;-72
2022/11/09 01:44:36;;;;;;;2.08;0.60;;;12.80;99.90;;;;;;5050901;28;20082;-72
2022/11/09 01:47:13;;;;;;;2.75;0.55;;;12.80;99.90;;;;;;5058368;28;20750;-71
2022/11/09 01:49:57;;;;;;;2.20;1.05;;;12.70;99.90;;;;;;5049381;28;20040;-71
2022/11/09 01:52:34;;;;;;;3.80;0.80;;;12.70;99.90;;;;;;5048068;28;20638;-72
2022/11/09 01:55:08;;;;;;;0.82;0.52;;;12.70;99.90;;;;;;5041654;28;20176;-72
2022/11/09 01:57:57;;;;;;;1.58;0.65;;;12.70;99.90;;;;;;5070621;28;20044;-72
2022/11/09 02:00:23;;;;;;;1.65;0.80;;;12.70;99.90;;;;;;5056752;28;20098;-71
2022/11/09 02:02:55;;;;;;;1.95;1.08;;;12.60;99.90;;;;;;5059035;28;20443;-71
2022/11/09 02:05:24;;;;;;;2.10;0.80;;;12.60;99.90;;;;;;5057176;28;20040;-71
2022/11/09 02:07:50;;;;;;;3.45;0.90;;;12.60;99.90;;;;;;5052633;28;20037;-71
2022/11/09 02:10:30;;;;;;;1.33;0.80;;;12.60;99.90;;;;;;5050149;28;20521;-71
2022/11/09 02:12:57;;;;;;;3.45;0.70;;;12.60;99.90;;;;;;5053705;28;20070;-71
2022/11/09 02:15:24;;;;;;;0.88;0.47;;;12.60;99.90;;;;;;5044838;28;20128;-71
2022/11/09 02:17:53;;;;;;;1.30;0.60;;;12.60;99.90;;;;;;5049497;28;20175;-71
2022/11/09 02:20:19;;;;;;;1.05;0.52;;;12.60;99.90;;;;;;5050619;28;20139;-71
2022/11/09 02:22:45;;;;;;;3.60;0.90;;;12.60;99.90;;;;;;5049084;28;20513;-71
2022/11/09 02:25:13;;;;;;;1.83;0.57;;;12.60;99.90;;;;;;5065826;28;20037;-71
2022/11/09 02:27:40;;;;;;;3.45;0.60;;;12.60;99.90;;;;;;5055401;28;20063;-71
2022/11/09 02:30:06;;;;;;;1.27;0.70;;;12.60;99.90;;;;;;5053394;28;20033;-71
2022/11/09 02:32:32;;;;;;;2.30;0.77;;;12.60;99.90;;;;;;5050193;28;20569;-72
2022/11/09 02:34:58;;;;;;;5.47;0.60;;;12.50;99.90;;;;;;5051259;28;20124;-71
2022/11/09 02:37:46;;;;;;;1.67;0.60;;;12.50;99.90;;;;;;5052535;28;20041;-71
2022/11/09 02:40:35;;;;;;;0.70;0.40;;;12.50;99.90;;;;;;5032882;28;20078;-72
2022/11/09 02:43:01;;;;;;;2.08;0.77;;;12.50;99.90;;;;;;5065880;28;20064;-71
2022/11/09 02:45:27;;;;;;;5.78;1.23;;;12.50;99.90;;;;;;5057505;28;20066;-72
2022/11/09 02:47:52;;;;;;;2.58;0.70;;;12.50;99.90;;;;;;5049330;28;20037;-71
2022/11/09 02:50:18;;;;;;;4.43;0.82;;;12.50;99.90;;;;;;5033232;28;20752;-71
2022/11/09 02:52:44;;;;;;;1.00;0.55;;;12.50;99.90;;;;;;5050338;28;20115;-71
2022/11/09 02:55:09;;;;;;;1.58;1.00;;;12.50;99.90;;;;;;5032170;28;20036;-71
2022/11/09 02:57:35;;;;;;;2.90;0.70;;;12.50;99.90;;;;;;5035797;28;20056;-71
2022/11/09 03:00:01;;;;;;;3.63;0.80;;;12.40;99.90;;;;;;5052890;28;20040;-71
2022/11/09 03:02:26;;;;;;;1.33;0.63;;;12.40;99.90;;;;;;5053481;28;20056;-72
2022/11/09 03:04:52;;;;;;;0.75;0.32;;;12.40;99.90;;;;;;5046640;28;20141;-71
2022/11/09 03:07:18;;;;;;;2.55;1.10;;;12.40;99.90;;;;;;5032899;28;20039;-71
2022/11/09 03:09:45;;;;;;;2.10;0.80;;;12.40;99.90;;;;;;5051875;28;20060;-71
2022/11/09 03:12:28;;;;;;;2.05;0.57;;;12.40;99.90;;;;;;5068542;28;20083;-72
2022/11/09 03:14:59;;;;;;;4.32;0.85;;;12.40;99.90;;;;;;5052672;28;20053;-72
2022/11/09 03:17:25;;;;;;;0.93;0.40;;;12.40;99.90;;;;;;5049732;28;20037;-72
2022/11/09 03:19:51;;;;;;;0.98;0.38;;;12.40;99.90;;;;;;5048447;28;20033;-71
2022/11/09 03:22:17;;;;;;;1.25;0.60;;;12.40;99.90;;;;;;5053875;28;20551;-72
2022/11/09 03:24:42;;;;;;;1.55;0.50;;;12.40;99.90;;;;;;5050076;28;20070;-72
2022/11/09 03:27:08;;;;;;;3.25;0.50;;;12.40;99.90;;;;;;5052184;28;20037;-71
2022/11/09 03:29:34;;;;;;;1.67;0.50;;;12.40;99.90;;;;;;5052472;28;21462;-71
2022/11/09 03:31:59;;;;;;;1.27;0.50;;;12.40;99.90;;;;;;5048845;28;20104;-72
2022/11/09 03:34:25;;;;;;;1.25;0.40;;;12.30;99.90;;;;;;5052076;28;20045;-72
2022/11/09 03:36:50;;;;;;;4.40;0.80;;;12.30;99.90;;;;;;5049143;28;20035;-72
2022/11/09 03:39:16;;;;;;;5.63;0.73;;;12.30;99.90;;;;;;5049505;28;20040;-72
2022/11/09 03:41:42;;;;;;;2.50;0.65;;;12.40;99.90;;;;;;5034277;28;20421;-72
2022/11/09 03:44:07;;;;;;;2.88;0.57;;;12.30;99.90;;;;;;5054165;28;20044;-72
2022/11/09 03:46:33;;;;;;;1.27;0.40;;;12.30;99.90;;;;;;5049634;28;20039;-72
2022/11/09 03:48:59;;;;;;;1.63;0.55;;;12.20;99.90;;;;;;5051434;28;20040;-71
2022/11/09 03:51:25;;;;;;;1.65;0.60;;;12.30;99.90;;;;;;5050258;28;20513;-72
2022/11/09 03:53:50;;;;;;;1.17;0.60;;;12.20;99.90;;;;;;5053134;28;20040;-72
2022/11/09 03:56:17;;;;;;;6.80;0.63;;;12.20;99.90;;;;;;5053017;28;20132;-72
2022/11/09 03:58:42;;;;;;;2.15;0.52;;;12.20;99.90;;;;;;5052477;28;20029;-72
2022/11/09 04:01:09;;;;;;;7.60;1.23;;;12.20;99.90;;;;;;5047813;28;20089;-72
2022/11/09 04:03:35;;;;;;;4.47;0.70;;;12.20;99.90;;;;;;5035027;28;20122;-72
2022/11/09 04:06:01;;;;;;;1.30;0.50;;;12.20;99.90;;;;;;5047721;28;20040;-72
2022/11/09 04:08:27;;;;;;;2.28;0.70;;;12.20;99.90;;;;;;5047247;28;20056;-72
2022/11/09 04:10:53;;;;;;;1.02;0.40;;;12.20;99.90;;;;;;5051301;28;20052;-72
2022/11/09 04:13:18;;;;;;;2.30;0.63;;;12.20;99.90;;;;;;5054508;28;20498;-72
2022/11/09 04:15:44;;;;;;;2.10;0.88;;;12.20;99.90;;;;;;5055567;28;20044;-72
2022/11/09 04:18:13;;;;;;;0.93;0.40;;;12.30;99.90;;;;;;5052054;28;20616;-72
2022/11/09 04:20:39;;;;;;;0.52;0.38;;;12.30;99.90;;;;;;5049067;28;20040;-72
2022/11/09 04:23:06;;;;;;;0.98;0.45;;;12.30;99.90;;;;;;5047862;28;20116;-72
2022/11/09 04:25:34;;;;;;;1.13;0.40;;;12.30;99.90;;;;;;5046895;28;20102;-72
2022/11/09 04:28:02;;;;;;;1.23;0.50;;;12.20;99.90;;;;;;5051514;28;20569;-72
2022/11/09 04:30:29;;;;;;;2.75;0.98;;;12.20;99.90;;;;;;5048807;28;20047;-72
2022/11/09 04:32:56;;;;;;;4.85;0.77;;;12.20;99.90;;;;;;5037111;28;20037;-72
2022/11/09 04:35:22;;;;;;;0.88;0.43;;;12.20;99.90;;;;;;5047834;28;20037;-72
2022/11/09 04:37:56;;;;;;;1.30;0.60;;;12.20;99.90;;;;;;5050488;28;20061;-71
2022/11/09 04:40:23;;;;;;;1.75;0.60;;;12.20;99.90;;;;;;5050791;28;20437;-72
2022/11/09 04:42:48;;;;;;;1.38;0.63;;;12.30;99.90;;;;;;5045987;28;20403;-72
2022/11/09 04:45:14;;;;;;;1.58;0.43;;;12.20;99.90;;;;;;5046637;28;20047;-72
2022/11/09 04:47:40;;;;;;;3.92;0.85;;;12.20;99.90;;;;;;5051905;28;20549;-72
2022/11/09 04:50:06;;;;;;;2.78;0.65;;;12.20;99.90;;;;;;5046140;28;20032;-72
2022/11/09 04:52:32;;;;;;;0.93;0.60;;;12.20;99.90;;;;;;5051892;28;20425;-72
2022/11/09 04:54:57;;;;;;;2.20;0.70;;;12.20;99.90;;;;;;5052577;28;20099;-72
2022/11/09 04:57:23;;;;;;;0.85;0.40;;;12.20;99.90;;;;;;5049736;28;20078;-72
2022/11/09 04:59:48;;;;;;;1.83;0.40;;;12.20;99.90;;;;;;5052491;28;20033;-72
2022/11/09 05:02:14;;;;;;;0.50;0.40;;;12.20;99.90;;;;;;5064348;28;20098;-72
2022/11/09 05:04:40;;;;;;;4.93;0.55;;;12.20;99.90;;;;;;5049809;28;20039;-72
2022/11/09 05:07:06;;;;;;;1.13;0.80;;;12.20;99.90;;;;;;5053763;28;20503;-72
2022/11/09 05:09:31;;;;;;;0.57;0.30;;;12.20;99.90;;;;;;5051783;28;20056;-72
2022/11/09 05:11:57;;;;;;;4.43;0.80;;;12.20;99.90;;;;;;5049875;28;20139;-72
2022/11/09 05:14:22;;;;;;;2.30;0.80;;;12.30;99.90;;;;;;5046942;28;20049;-71
2022/11/09 05:16:48;;;;;;;1.23;0.60;;;12.30;99.90;;;;;;5052641;28;20379;-72
2022/11/09 05:19:14;;;;;;;4.80;0.80;;;12.30;99.90;;;;;;5052746;28;20045;-72
2022/11/09 05:21:39;;;;;;;2.42;0.50;;;12.40;99.90;;;;;;5048757;28;20032;-72
2022/11/09 05:24:05;;;;;;;4.00;0.93;;;12.40;99.90;;;;;;5059344;28;20037;-72
2022/11/09 05:26:32;;;;;;;7.18;0.63;;;12.40;99.90;;;;;;5058073;28;20045;-71
2022/11/09 05:29:00;;;;;;;2.67;0.80;;;12.40;99.90;;;;;;5064619;28;20048;-72
2022/11/09 05:31:26;;;;;;;2.67;0.65;;;12.40;99.90;;;;;;5045314;28;20448;-72
2022/11/09 05:33:53;;;;;;;4.25;0.90;;;12.50;99.90;;;;;;5065969;28;20064;-72
2022/11/09 05:36:19;;;;;;;3.30;0.88;;;12.40;99.90;;;;;;5051059;28;20082;-72
2022/11/09 05:38:45;;;;;;;1.60;0.52;;;12.40;99.90;;;;;;5049443;28;20274;-72
2022/11/09 05:41:11;;;;;;;1.48;0.63;;;12.40;99.90;;;;;;5048289;28;20067;-72
2022/11/09 05:43:37;;;;;;;2.90;0.90;;;12.40;99.90;;;;;;5045585;28;20129;-72
2022/11/09 05:46:03;;;;;;;3.22;0.82;;;12.40;99.90;;;;;;5054056;28;20123;-72
2022/11/09 05:48:28;;;;;;;1.27;0.60;;;12.40;99.90;;;;;;5056247;28;20036;-72
2022/11/09 05:50:54;;;;;;;2.05;0.60;;;12.30;99.90;;;;;;5038799;28;21749;-72
2022/11/09 05:53:20;;;;;;;0.85;0.60;;;12.30;99.90;;;;;;5054926;28;20123;-72
2022/11/09 05:55:45;;;;;;;1.13;0.55;;;12.30;99.90;;;;;;5045492;28;20048;-72
2022/11/09 05:58:11;;;;;;;0.93;0.40;;;12.20;99.90;;;;;;5054010;28;20029;-72
2022/11/09 06:00:36;;;;;;;1.40;0.52;;;12.20;99.90;;;;;;5054086;28;20065;-72
2022/11/09 06:03:07;;;;;;;6.70;0.55;;;12.20;99.90;;;;;;5053515;28;20043;-72
2022/11/09 06:05:34;;;;;;;1.02;0.45;;;12.20;99.90;;;;;;5049917;28;20408;-72
2022/11/09 06:08:08;;;;;;;2.58;0.50;;;12.10;99.90;;;;;;5032406;28;20047;-71
2022/11/09 06:10:34;;;;;;;1.98;0.40;;;12.10;99.90;;;;;;5052364;28;20120;-72
2022/11/09 06:13:01;;;;;;;1.30;0.50;;;12.10;99.90;;;;;;5056598;28;20116;-72
2022/11/09 06:15:26;;;;;;;0.70;0.32;;;12.00;99.90;;;;;;5032547;28;20037;-72
2022/11/09 06:17:53;;;;;;;1.50;0.65;;;12.10;99.90;;;;;;5048448;28;20029;-72
2022/11/09 06:20:19;;;;;;;1.52;0.45;;;12.00;99.90;;;;;;5051539;28;21096;-72
2022/11/09 06:22:51;;;;;;;1.70;0.70;;;12.00;99.90;;;;;;5071494;28;20041;-72
2022/11/09 06:25:17;;;;;;;2.40;0.50;;;12.00;99.90;;;;;;5050283;28;20493;-72
2022/11/09 06:27:42;;;;;;;0.65;0.25;;;12.00;99.90;;;;;;5050898;28;20067;-71
2022/11/09 06:30:08;;;;;;;1.42;0.30;;;12.00;99.90;;;;;;5051192;28;20040;-72
2022/11/09 06:32:34;;;;;;;0.95;0.60;;;12.00;99.90;;;;;;5056562;28;20033;-72
2022/11/09 06:34:59;;;;;;;3.20;0.85;;;12.00;99.90;;;;;;5050261;28;20066;-72
2022/11/09 06:37:25;;;;;;;1.20;0.50;;;11.90;99.90;;;;;;5043593;28;20170;-71
2022/11/09 06:39:51;;;;;;;1.92;0.73;;;12.00;99.90;;;;;;5050958;28;20037;-72
2022/11/09 06:42:17;;;;;;;2.67;1.00;;;11.90;99.90;;;;;;5052076;28;21023;-72
2022/11/09 06:44:42;;;;;;;0.85;0.40;;;11.90;99.90;;;;;;5057484;28;20044;-72
2022/11/09 06:47:08;;;;;;;1.30;0.55;;;11.90;99.90;;;;;;5056285;28;20071;-71
2022/11/09 06:49:33;;;;;;;0.85;0.50;;;11.90;99.90;;;;;;5044238;28;20063;-72
2022/11/09 06:51:59;;;;;;;1.30;0.47;;;11.90;99.90;;;;;;5057406;28;20040;-72
2022/11/09 06:54:25;;;;;;;1.48;0.57;;;11.90;99.90;;;;;;5068251;28;20072;-72
2022/11/09 06:56:53;;;;;;;1.13;0.43;;;11.80;99.90;;;;;;5047796;28;20743;-72
2022/11/09 06:59:19;;;;;;;0.80;0.43;;;11.80;99.90;;;;;;5048088;28;20068;-72
2022/11/09 07:01:45;;;;;;;2.63;0.30;;;11.90;99.90;;;;;;5051291;28;20410;-72
2022/11/09 07:04:13;;;;;;;4.75;0.63;;;11.90;99.90;;;;;;5067373;28;20116;-72
2022/11/09 07:06:39;;;;;;;4.35;0.35;;;11.80;99.90;;;;;;5059690;28;20086;-72
2022/11/09 07:09:05;;;;;;;2.15;0.40;;;11.80;99.90;;;;;;5055621;28;20039;-72
2022/11/09 07:11:31;;;;;;;3.45;0.50;;;11.80;99.90;;;;;;5057118;28;20041;-72
2022/11/09 07:13:56;;;;;;;1.15;0.30;;;11.80;99.90;;;;;;5049318;28;20057;-71
2022/11/09 07:16:22;;;;;;;3.03;0.73;;;11.90;99.90;;;;;;5029253;28;20094;-71
2022/11/09 07:18:48;;;;;;;1.00;0.50;;;11.80;99.90;;;;;;5067603;28;20554;-71
2022/11/09 07:21:14;;;;;;;1.77;0.57;;;11.80;99.90;;;;;;5047585;28;20531;-71
2022/11/09 07:23:40;;;;;;;0.73;0.30;;;11.80;99.90;;;;;;5050673;28;20037;-71
2022/11/09 07:26:05;;;;;;;1.60;0.30;;;11.80;99.90;;;;;;5057010;28;20173;-72
2022/11/09 07:28:31;;;;;;;2.50;0.43;;;11.80;99.90;;;;;;5054350;28;20045;-71
2022/11/09 07:30:57;;;;;;;1.23;0.55;;;11.90;99.90;;;;;;5051487;28;20064;-71
2022/11/09 07:33:23;;;;;;;2.17;0.40;;;11.90;99.90;;;;;;5058306;28;20491;-71
2022/11/09 07:35:49;;;;;;;3.83;0.60;;;11.80;99.90;;;;;;5053933;28;20367;-71
2022/11/09 07:38:15;;;;;;;3.13;0.80;;;11.80;99.90;;;;;;5050336;28;20040;-71
2022/11/09 07:40:43;;;;;;;0.50;0.40;;;11.90;99.90;;;;;;5033903;28;20051;-72
2022/11/09 07:43:10;;;;;;;1.05;0.50;;;11.80;99.90;;;;;;5047732;28;20044;-72
2022/11/09 07:45:36;;;;;;;0.80;0.50;;;11.80;99.90;;;;;;5038929;28;20037;-72
2022/11/09 07:48:05;;;;;;;1.42;0.47;;;11.80;99.90;;;;;;5051325;28;20389;-71
2022/11/09 07:50:32;;;;;;;3.33;1.15;;;11.80;99.90;;;;;;5046375;28;20044;-71
2022/11/09 07:52:59;;;;;;;1.83;0.80;;;11.90;99.90;;;;;;5052691;28;20041;-71
2022/11/09 07:55:26;;;;;;;2.13;0.77;;;11.80;99.90;;;;;;5056286;28;22088;-71
2022/11/09 07:57:56;;;;;;;2.55;0.70;;;11.90;99.90;;;;;;5052083;28;20029;-71
2022/11/09 08:00:22;;;;;;;1.52;0.60;;;11.90;99.90;;;;;;5049949;28;20080;-71
2022/11/09 08:02:48;;;;;;;5.55;0.68;;;11.90;99.90;;;;;;5048132;28;20487;-71
2022/11/09 08:05:14;;;;;;;2.40;0.50;;;11.90;99.90;;;;;;5068880;28;20124;-71
2022/11/09 08:07:39;;;;;;;2.88;0.80;;;11.90;99.90;;;;;;5043459;28;20514;-71
2022/11/09 08:10:05;;;;;;;0.80;0.40;;;11.90;99.90;;;;;;5042551;28;20049;-71
2022/11/09 08:12:31;;;;;;;2.35;0.75;;;11.90;99.90;;;;;;5045262;28;20281;-71
2022/11/09 08:14:57;;;;;;;1.42;0.50;;;11.90;99.90;;;;;;5053915;28;20115;-71
2022/11/09 08:17:22;;;;;;;1.13;0.47;;;12.00;99.90;;;;;;5046240;28;20068;-71
2022/11/09 08:19:48;;;;;;;1.40;0.47;;;12.00;99.90;;;;;;5048511;28;20028;-71
2022/11/09 08:22:14;;;;;;;2.95;0.85;;;12.00;99.90;;;;;;5044352;28;20032;-71
2022/11/09 08:24:39;;;;;;;3.97;0.38;;;12.00;99.90;;;;;;5047948;28;20562;-71
2022/11/09 08:27:05;;;;;;;0.43;0.30;;;12.00;99.90;;;;;;5051245;28;20124;-71
2022/11/09 08:29:31;;;;;;;2.25;0.90;;;12.10;99.90;;;;;;5047004;28;20098;-71
2022/11/09 08:31:56;;;;;;;3.22;0.57;;;12.10;99.90;;;;;;5057126;28;20039;-71
2022/11/09 08:34:23;;;;;;;0.98;0.50;;;12.20;99.90;;;;;;5060632;28;20433;-71
2022/11/09 08:36:49;;;;;;;2.03;0.70;;;12.20;99.90;;;;;;5050883;28;20052;-71
2022/11/09 08:39:15;;;;;;;3.70;0.73;;;12.20;99.90;;;;;;5050431;28;20037;-71
2022/11/09 08:41:40;;;;;;;1.52;0.82;;;12.20;99.90;;;;;;5054171;28;20032;-71
2022/11/09 08:44:06;;;;;;;4.25;1.08;;;12.20;99.90;;;;;;5055923;28;20094;-71
2022/11/09 08:46:32;;;;;;;1.98;0.77;;;12.30;99.90;;;;;;5058972;28;20029;-71
2022/11/09 08:48:57;;;;;;;2.25;0.40;;;12.30;99.90;;;;;;5055422;28;20037;-71
2022/11/09 08:51:23;;;;;;;2.53;0.57;;;12.30;99.90;;;;;;5053898;28;20487;-71
2022/11/09 08:53:49;;;;;;;1.90;0.70;;;12.40;99.90;;;;;;5031132;28;20094;-72
2022/11/09 08:56:17;;;;;;;1.25;0.38;;;12.40;99.90;;;;;;5049035;28;20045;-71
2022/11/09 08:58:44;;;;;;;5.30;1.33;;;12.40;99.90;;;;;;5053409;28;20490;-71
2022/11/09 09:01:10;;;;;;;3.03;0.65;;;12.40;99.90;;;;;;5040882;28;20032;-71
2022/11/09 09:03:36;;;;;;;2.35;1.00;;;12.40;99.90;;;;;;5051359;28;20044;-71
2022/11/09 09:06:04;;;;;;;2.95;0.93;;;12.50;99.90;;;;;;5058091;28;20044;-71
2022/11/09 09:08:29;;;;;;;4.68;1.40;;;12.50;99.90;;;;;;5052209;28;20410;-72
2022/11/09 09:10:55;;;;;;;1.52;1.13;;;12.50;99.90;;;;;;5050554;28;20056;-71
2022/11/09 09:13:21;;;;;;;2.22;0.70;;;12.60;99.90;;;;;;5041330;28;20400;-71
2022/11/09 09:15:48;;;;;;;1.70;0.70;;;12.60;99.90;;;;;;5039740;28;20037;-71
2022/11/09 09:18:13;;;;;;;3.38;0.93;;;12.60;99.90;;;;;;5057684;28;20033;-72
2022/11/09 09:20:39;;;;;;;3.55;0.80;;;12.70;99.90;;;;;;5056915;28;20105;-71
2022/11/09 09:23:05;;;;;;;5.63;0.70;;;12.70;99.90;;;;;;5057277;28;20127;-71
2022/11/09 09:25:31;;;;;;;0.93;0.47;;;12.70;99.90;;;;;;5053131;28;20120;-71
2022/11/09 09:27:56;;;;;;;3.60;0.40;;;12.70;99.90;;;;;;5038993;28;20052;-71
2022/11/09 09:30:22;;;;;;;1.00;0.47;;;12.70;99.90;;;;;;5040413;28;20029;-71
2022/11/09 09:32:48;;;;;;;7.47;0.95;;;12.80;99.90;;;;;;5064090;28;20094;-71
2022/11/09 09:35:13;;;;;;;2.08;0.73;;;12.80;99.90;;;;;;5069409;28;20052;-71
2022/11/09 09:37:39;;;;;;;6.57;0.80;;;12.80;99.90;;;;;;5057642;28;20039;-71
2022/11/09 09:40:05;;;;;;;4.03;1.00;;;12.80;99.90;;;;;;5055965;28;20589;-71
2022/11/09 09:42:36;;;;;;;2.53;1.10;;;12.90;99.90;;;;;;5044984;28;20131;-71
2022/11/09 09:45:07;;;;;;;2.38;0.68;;;12.80;99.90;;;;;;5036789;28;20379;-71
2022/11/09 09:47:47;;;;;;;1.45;0.93;;;12.80;99.90;;;;;;5050536;28;22321;-71
2022/11/09 09:50:45;;;;;;;3.83;1.13;;;12.80;99.90;;;;;;5045497;28;20111;-71
2022/11/09 09:53:34;;;;;;;3.92;1.73;;;12.80;99.90;;;;;;5058746;28;20549;-71
2022/11/09 09:56:17;;;;;;;1.65;0.70;;;12.80;99.90;;;;;;5055547;28;20049;-71
2022/11/09 09:59:09;;;;;;;4.55;0.90;;;12.90;99.90;;;;;;5072606;28;20036;-71
2022/11/09 10:01:41;;;;;;;1.90;0.80;;;12.80;99.90;;;;;;5056727;28;20036;-71
2022/11/09 10:04:16;;;;;;;1.75;0.60;;;12.90;99.90;;;;;;5049761;28;20406;-71
2022/11/09 10:06:59;;;;;;;2.65;0.73;;;13.00;99.90;;;;;;5050663;28;20048;-71
2022/11/09 10:09:38;;;;;;;1.52;0.85;;;13.00;99.90;;;;;;5049339;28;20041;-71
2022/11/09 10:12:28;;;;;;;1.23;0.60;;;13.00;99.90;;;;;;5042627;28;20041;-71
2022/11/09 10:15:12;;;;;;;3.92;1.13;;;13.00;99.90;;;;;;5049082;28;20045;-71
2022/11/09 10:18:17;;;;;;;1.17;0.40;;;13.10;99.90;;;;;;5055070;28;20107;-71
2022/11/09 10:21:00;;;;;;;3.00;1.00;;;13.10;99.90;;;;;;5041316;28;20049;-71
2022/11/09 10:23:44;;;;;;;1.13;0.85;;;13.10;99.90;;;;;;5048728;28;20162;-71
2022/11/09 10:26:18;;;;;;;2.95;0.75;;;13.20;99.90;;;;;;5070746;28;20040;-71
2022/11/09 10:28:47;;;;;;;2.35;0.93;;;13.20;99.90;;;;;;5073601;28;20121;-71
2022/11/09 10:31:17;;;;;;;1.98;0.82;;;13.20;99.90;;;;;;5056377;28;20040;-71
2022/11/09 10:33:46;;;;;;;3.30;0.68;;;13.20;99.90;;;;;;5055015;28;20404;-71
2022/11/09 10:36:27;;;;;;;6.85;0.82;;;13.20;99.90;;;;;;5055906;28;20102;-71
2022/11/09 10:38:55;;;;;;;4.75;1.15;;;13.20;99.90;;;;;;5052316;28;20037;-71
2022/11/09 10:41:39;;;;;;;2.72;0.57;;;13.20;99.90;;;;;;5060496;28;20147;-71
2022/11/09 10:44:08;;;;;;;5.25;1.10;;;13.20;99.90;;;;;;5060942;28;20528;-71
2022/11/09 10:47:26;;;;;;;5.28;0.90;;;13.20;99.90;;;;;;5052356;28;20151;-71
2022/11/09 10:50:06;;;;;;;1.90;0.68;;;13.30;99.90;;;;;;5008459;28;20143;-71
2022/11/09 10:52:40;;;;;;;3.13;0.80;;;13.30;99.90;;;;;;5047369;28;20045;-71
2022/11/09 10:55:26;;;;;;;2.30;0.75;;;13.30;99.90;;;;;;5036531;28;20036;-71
2022/11/09 10:57:54;;;;;;;3.72;0.80;;;13.30;99.90;;;;;;5055573;28;20128;-71
2022/11/09 11:00:20;;;;;;;3.45;1.00;;;13.40;99.90;;;;;;5052671;28;20051;-71
2022/11/09 11:02:48;;;;;;;1.30;0.60;;;13.40;99.90;;;;;;5047585;28;20136;-71
2022/11/09 11:05:17;;;;;;;3.47;0.90;;;13.40;99.90;;;;;;5034167;28;20048;-71
2022/11/09 11:07:46;;;;;;;5.63;1.15;;;13.40;99.90;;;;;;5058129;28;20037;-71
2022/11/09 11:10:14;;;;;;;4.00;0.73;;;13.40;99.90;;;;;;5054172;28;20057;-71
2022/11/09 11:12:50;;;;;;;2.33;0.93;;;13.40;99.90;;;;;;5049653;28;20612;-71
2022/11/09 11:15:34;;;;;;;1.85;0.98;;;13.40;99.90;;;;;;5055640;28;20068;-71
2022/11/09 11:18:02;;;;;;;2.55;1.17;;;13.50;99.90;;;;;;5071984;28;20086;-71
2022/11/09 11:20:37;;;;;;;3.13;0.70;;;13.60;99.90;;;;;;5058250;28;20111;-71
2022/11/09 11:23:22;;;;;;;2.70;0.73;;;13.60;99.90;;;;;;5045855;28;20044;-71
2022/11/09 11:25:54;;;;;;;2.80;0.63;;;13.70;99.90;;;;;;5036712;28;20036;-71
2022/11/09 11:28:30;;;;;;;4.00;0.70;;;13.70;99.90;;;;;;5055425;28;20052;-71
2022/11/09 11:30:56;;;;;;;3.38;0.80;;;13.70;99.90;;;;;;5050724;28;20037;-71
2022/11/09 11:33:22;;;;;;;3.78;0.82;;;13.80;99.90;;;;;;5047795;28;20131;-71
2022/11/09 11:35:59;;;;;;;3.28;0.85;;;13.90;99.90;;;;;;5051371;28;20090;-71
2022/11/09 11:38:37;;;;;;;3.10;0.70;;;13.90;99.90;;;;;;5057398;28;20045;-71
2022/11/09 11:41:27;;;;;;;2.67;0.85;;;13.90;99.90;;;;;;5051714;28;20050;-71
2022/11/09 11:44:09;;;;;;;1.23;0.50;;;13.90;99.90;;;;;;5031271;28;20087;-71
2022/11/09 11:46:38;;;;;;;5.10;1.35;;;13.90;99.90;;;;;;5050712;28;20040;-70
2022/11/09 11:49:26;;;;;;;1.02;0.57;;;13.80;99.90;;;;;;5053514;28;20036;-71
2022/11/09 11:52:16;;;;;;;3.88;0.63;;;13.80;99.90;;;;;;5059006;28;20569;-71
2022/11/09 11:54:45;;;;;;;2.45;0.75;;;13.70;99.90;;;;;;5041761;28;20195;-72
2022/11/09 11:57:32;;;;;;;2.67;0.77;;;13.70;99.90;;;;;;5050739;28;20074;-72
2022/11/09 12:00:09;;;;;;;3.42;1.10;;;13.70;99.90;;;;;;5052566;28;20123;-72
2022/11/09 12:02:52;;;;;;;3.38;0.70;;;13.60;99.90;;;;;;5024822;28;20041;-72
2022/11/09 12:05:39;;;;;;;6.10;0.80;;;13.60;99.90;;;;;;5047730;28;20553;-72
2022/11/09 12:08:39;;;;;;;2.13;0.50;;;13.60;99.90;;;;;;5048314;28;20048;-72
2022/11/09 12:11:31;;;;;;;1.08;0.50;;;13.60;99.90;;;;;;5043177;28;20110;-71
2022/11/09 12:14:24;;;;;;;3.88;0.80;;;13.60;99.90;;;;;;5046776;28;20059;-71
2022/11/09 12:17:26;;;;;;;3.95;0.68;;;13.70;99.90;;;;;;5044236;28;20526;-71
2022/11/09 12:19:58;;;;;;;2.25;0.65;;;13.70;99.90;;;;;;5028356;28;20124;-72
2022/11/09 12:22:33;;;;;;;1.15;0.47;;;13.70;99.90;;;;;;5046691;28;20055;-72
2022/11/09 12:25:18;;;;;;;4.00;0.88;;;13.80;99.90;;;;;;5026630;28;20586;-72
2022/11/09 12:28:08;;;;;;;1.08;0.60;;;13.80;99.90;;;;;;5048845;28;20071;-71
2022/11/09 12:30:53;;;;;;;2.47;1.15;;;13.70;99.90;;;;;;5050905;28;20390;-71
2022/11/09 12:33:27;;;;;;;1.30;0.60;;;13.70;99.90;;;;;;5044008;28;20100;-71
2022/11/09 12:35:59;;;;;;;2.83;1.13;;;13.70;99.90;;;;;;5048131;28;20044;-71
2022/11/09 12:38:42;;;;;;;1.83;0.95;;;13.70;99.90;;;;;;5038043;28;20047;-71
2022/11/09 12:41:14;;;;;;;2.83;0.68;;;13.70;99.90;;;;;;5045726;28;20045;-71
2022/11/09 12:43:52;;;;;;;1.95;0.93;;;13.60;99.90;;;;;;5045877;28;20094;-71
2022/11/09 12:46:23;;;;;;;2.40;0.57;;;13.60;99.90;;;;;;5045798;28;20041;-71
2022/11/09 12:48:49;;;;;;;4.85;0.88;;;13.70;99.90;;;;;;5033497;28;20131;-71
2022/11/09 12:51:15;;;;;;;5.15;0.65;;;13.60;99.90;;;;;;5044152;28;20145;-71
2022/11/09 12:53:41;;;;;;;3.60;0.75;;;13.70;99.90;;;;;;5027427;28;20041;-71
2022/11/09 12:56:34;;;;;;;2.40;0.60;;;13.60;99.90;;;;;;5048444;28;20044;-71
2022/11/09 12:59:21;;;;;;;0.65;0.30;;;13.60;99.90;;;;;;5031309;28;20043;-71
2022/11/09 13:01:52;;;;;;;1.25;0.63;;;13.60;99.90;;;;;;5044713;28;20039;-72